Terminal Aerodrome Forecast
Issued by NWS Billings, MT

Current Version | Previous Version | Text Only | Print | Product List | Glossary On
Versions: 1 2 3 4 5 6 7 8 9 10 11 12 13 14 15 16 17 18 19 20 21 22 23 24 25 26 27 28 29 30
000
FTUS45 KBYZ 222339
TAFSHR
TAF
KSHR 222339Z 2300/2324 29018G23KT P6SM VCSH BKN100
     FM230200 35035G45KT P6SM BKN080
     FM231200 31030G38KT P6SM SCT080=

USA.gov is the U.S. government's official web portal to all federal, state and local government web resources and services.